Time,TemperatureF,DewpointF,PressureIn,WindDirection,WindDirectionDegrees,WindSpeedMPH,WindSpeedGustMPH,Humidity,HourlyPrecipIn,Conditions,Clouds,dailyrainin,SoftwareType,DateUTC
2013-01-24 00:00:00,42.8,39.2,30.03,WSW,248,1.0,1.0,87,0.00,,,0.19,Wunderground v.1.15,2013-01-24 08:00:00,
2013-01-24 00:10:00,42.8,39.5,30.04,West,270,1.0,8.0,88,0.00,,,0.00,Wunderground v.1.15,2013-01-24 08:10:00,
2013-01-24 00:15:00,43.1,39.5,30.04,WSW,253,1.0,8.0,87,0.00,,,0.00,Wunderground v.1.15,2013-01-24 08:15:00,
2013-01-24 00:25:00,43.1,39.5,30.04,WSW,254,0.0,1.0,87,0.00,,,0.00,Wunderground v.1.15,2013-01-24 08:25:00,
2013-01-24 00:30:00,42.9,39.3,30.04,WSW,251,0.0,0.0,87,0.00,,,0.00,Wunderground v.1.15,2013-01-24 08:30:00,
2013-01-24 00:35:00,43.1,39.5,30.04,WSW,250,1.0,1.0,87,0.00,,,0.00,Wunderground v.1.15,2013-01-24 08:35:00,
2013-01-24 00:40:00,43.2,39.6,30.05,WSW,250,1.0,1.0,87,0.00,,,0.00,Wunderground v.1.15,2013-01-24 08:40:00,
2013-01-24 00:45:00,43.2,39.6,30.05,West,265,1.0,2.0,87,0.00,,,0.00,Wunderground v.1.15,2013-01-24 08:45:00,
2013-01-24 00:50:00,43.2,39.3,30.05,West,265,2.0,2.0,86,0.00,,,0.00,Wunderground v.1.15,2013-01-24 08:50:00,
2013-01-24 00:55:00,43.2,39.3,30.05,West,265,1.0,2.0,86,0.00,,,0.00,Wunderground v.1.15,2013-01-24 08:55:00,
2013-01-24 01:05:00,43.1,39.2,30.05,West,260,1.0,1.0,86,0.00,,,0.00,Wunderground v.1.15,2013-01-24 09:05:00,
2013-01-24 01:10:00,43.1,38.9,30.06,West,260,1.0,1.0,85,0.00,,,0.00,Wunderground v.1.15,2013-01-24 09:10:00,
2013-01-24 01:20:00,42.9,38.7,30.06,WSW,250,1.0,2.0,85,0.00,,,0.00,Wunderground v.1.15,2013-01-24 09:20:00,
2013-01-24 01:25:00,43.1,38.9,30.07,WSW,251,2.0,2.0,85,0.00,,,0.00,Wunderground v.1.15,2013-01-24 09:25:00,
2013-01-24 01:30:00,43.3,39.1,30.07,WSW,246,2.0,2.0,85,0.00,,,0.00,Wunderground v.1.15,2013-01-24 09:30:00,
2013-01-24 01:35:00,43.3,38.8,30.07,WSW,254,2.0,5.0,84,0.00,,,0.00,Wunderground v.1.15,2013-01-24 09:35:00,
2013-01-24 01:45:00,43.8,39.0,30.07,West,260,2.0,3.0,83,0.00,,,0.00,Wunderground v.1.15,2013-01-24 09:45:00,
2013-01-24 01:50:00,43.6,38.8,30.07,WSW,253,2.0,2.0,83,0.00,,,0.00,Wunderground v.1.15,2013-01-24 09:50:00,
2013-01-24 01:55:00,43.3,38.5,30.08,West,264,2.0,2.0,83,0.00,,,0.00,Wunderground v.1.15,2013-01-24 09:55:00,
2013-01-24 02:00:00,43.2,38.4,30.08,West,264,1.0,1.0,83,0.00,,,0.00,Wunderground v.1.15,2013-01-24 10:00:00,
2013-01-24 02:05:00,43.2,38.7,30.08,West,277,1.0,2.0,84,0.00,,,0.00,Wunderground v.1.15,2013-01-24 10:05:00,
2013-01-24 02:10:00,43.3,38.5,30.08,West,263,2.0,5.0,83,0.00,,,0.00,Wunderground v.1.15,2013-01-24 10:10:00,
2013-01-24 02:20:00,43.5,38.4,30.08,WSW,237,3.0,3.0,82,0.00,,,0.00,Wunderground v.1.15,2013-01-24 10:20:00,
2013-01-24 02:25:00,43.6,38.2,30.09,WNW,285,2.0,3.0,81,0.00,,,0.00,Wunderground v.1.15,2013-01-24 10:25:00,
2013-01-24 02:35:00,43.6,38.5,30.09,West,261,2.0,2.0,82,0.00,,,0.00,Wunderground v.1.15,2013-01-24 10:35:00,
2013-01-24 02:40:00,43.3,38.2,30.09,WSW,253,1.0,1.0,82,0.00,,,0.00,Wunderground v.1.15,2013-01-24 10:40:00,
2013-01-24 02:45:00,43.2,38.1,30.09,WSW,254,2.0,2.0,82,0.00,,,0.00,Wunderground v.1.15,2013-01-24 10:45:00,
2013-01-24 02:50:00,43.1,38.0,30.09,WSW,251,2.0,2.0,82,0.00,,,0.00,Wunderground v.1.15,2013-01-24 10:50:00,
2013-01-24 02:55:00,42.9,38.1,30.10,WSW,251,2.0,2.0,83,0.00,,,0.00,Wunderground v.1.15,2013-01-24 10:55:00,
2013-01-24 03:00:00,42.6,38.1,30.10,West,270,1.0,1.0,84,0.00,,,0.00,Wunderground v.1.15,2013-01-24 11:00:00,
2013-01-24 03:05:00,42.3,38.1,30.10,WSW,256,1.0,3.0,85,0.00,,,0.00,Wunderground v.1.15,2013-01-24 11:05:00,
2013-01-24 03:15:00,42.3,38.4,30.10,SW,236,1.0,6.0,86,0.00,,,0.00,Wunderground v.1.15,2013-01-24 11:15:00,
2013-01-24 03:20:00,42.1,38.2,30.10,SW,236,1.0,1.0,86,0.00,,,0.00,Wunderground v.1.15,2013-01-24 11:20:00,
2013-01-24 03:25:00,41.9,38.3,30.10,SW,236,1.0,1.0,87,0.00,,,0.00,Wunderground v.1.15,2013-01-24 11:25:00,
2013-01-24 03:35:00,41.9,38.6,30.10,WSW,248,1.0,1.0,88,0.00,,,0.00,Wunderground v.1.15,2013-01-24 11:35:00,
2013-01-24 03:40:00,41.9,38.3,30.10,WSW,248,1.0,1.0,87,0.00,,,0.00,Wunderground v.1.15,2013-01-24 11:40:00,
2013-01-24 03:45:00,41.6,38.3,30.10,WNW,298,0.0,1.0,88,0.00,,,0.00,Wunderground v.1.15,2013-01-24 11:45:00,
2013-01-24 03:50:00,41.5,38.2,30.10,WNW,296,0.0,0.0,88,0.00,,,0.00,Wunderground v.1.15,2013-01-24 11:50:00,
2013-01-24 03:55:00,41.5,38.2,30.10,WNW,296,1.0,1.0,88,0.00,,,0.00,Wunderground v.1.15,2013-01-24 11:55:00,
2013-01-24 04:05:00,41.2,38.2,30.10,SW,230,1.0,5.0,89,0.00,,,0.00,Wunderground v.1.15,2013-01-24 12:05:00,
2013-01-24 04:10:00,41.3,38.3,30.09,WSW,254,2.0,5.0,89,0.00,,,0.00,Wunderground v.1.15,2013-01-24 12:10:00,
2013-01-24 04:20:00,41.3,38.3,30.09,WSW,240,1.0,1.0,89,0.00,,,0.00,Wunderground v.1.15,2013-01-24 12:20:00,
2013-01-24 04:25:00,40.9,37.6,30.09,South,184,1.0,1.0,88,0.00,,,0.00,Wunderground v.1.15,2013-01-24 12:25:00,
2013-01-24 04:30:00,40.1,37.1,30.09,South,184,1.0,1.0,89,0.00,,,0.00,Wunderground v.1.15,2013-01-24 12:30:00,
2013-01-24 04:35:00,39.6,36.9,30.09,South,184,1.0,1.0,90,0.00,,,0.00,Wunderground v.1.15,2013-01-24 12:35:00,
2013-01-24 04:40:00,39.3,36.6,30.09,South,184,0.0,0.0,90,0.00,,,0.00,Wunderground v.1.15,2013-01-24 12:40:00,
2013-01-24 04:45:00,39.2,36.8,30.09,South,184,0.0,0.0,91,0.00,,,0.00,Wunderground v.1.15,2013-01-24 12:45:00,
2013-01-24 04:55:00,38.9,36.5,30.09,South,184,0.0,0.0,91,0.00,,,0.00,Wunderground v.1.15,2013-01-24 12:55:00,
2013-01-24 05:00:00,39.1,36.7,30.09,South,184,0.0,0.0,91,0.00,,,0.00,Wunderground v.1.15,2013-01-24 13:00:00,
2013-01-24 05:05:00,39.1,37.0,30.09,South,184,0.0,5.0,92,0.00,,,0.00,Wunderground v.1.15,2013-01-24 13:05:00,
2013-01-24 05:10:00,39.1,37.0,30.10,WSW,239,0.0,5.0,92,0.00,,,0.00,Wunderground v.1.15,2013-01-24 13:10:00,
2013-01-24 05:20:00,39.8,37.9,30.10,West,270,0.0,0.0,93,0.00,,,0.00,Wunderground v.1.15,2013-01-24 13:20:00,
2013-01-24 05:25:00,40.1,38.2,30.10,West,277,1.0,1.0,93,0.00,,,0.00,Wunderground v.1.15,2013-01-24 13:25:00,
2013-01-24 05:30:00,40.3,38.4,30.10,West,280,1.0,1.0,93,0.00,,,0.00,Wunderground v.1.15,2013-01-24 13:30:00,
2013-01-24 05:35:00,40.3,38.4,30.10,West,274,0.0,2.0,93,0.00,,,0.00,Wunderground v.1.15,2013-01-24 13:35:00,
2013-01-24 05:40:00,40.3,38.4,30.11,WSW,258,0.0,0.0,93,0.00,,,0.00,Wunderground v.1.15,2013-01-24 13:40:00,
2013-01-24 05:45:00,40.6,38.7,30.11,WSW,254,1.0,1.0,93,0.00,,,0.00,Wunderground v.1.15,2013-01-24 13:45:00,
2013-01-24 05:55:00,40.6,38.7,30.12,WSW,257,0.0,1.0,93,0.00,,,0.00,Wunderground v.1.15,2013-01-24 13:55:00,
2013-01-24 06:00:00,40.6,38.7,30.12,WSW,257,0.0,0.0,93,0.00,,,0.00,Wunderground v.1.15,2013-01-24 14:00:00,
2013-01-24 06:05:00,40.6,38.7,30.12,WSW,257,0.0,1.0,93,0.00,,,0.00,Wunderground v.1.15,2013-01-24 14:05:00,
2013-01-24 06:10:00,40.8,38.9,30.11,WSW,251,1.0,2.0,93,0.00,,,0.00,Wunderground v.1.15,2013-01-24 14:10:00,
2013-01-24 06:20:00,40.9,38.8,30.11,WSW,254,1.0,1.0,92,0.00,,,0.00,Wunderground v.1.15,2013-01-24 14:20:00,
2013-01-24 06:25:00,40.9,38.8,30.12,WSW,254,0.0,1.0,92,0.00,,,0.00,Wunderground v.1.15,2013-01-24 14:25:00,
2013-01-24 06:30:00,40.9,38.8,30.12,West,267,1.0,1.0,92,0.00,,,0.00,Wunderground v.1.15,2013-01-24 14:30:00,
2013-01-24 06:35:00,40.8,38.4,30.12,West,267,1.0,1.0,91,0.00,,,0.00,Wunderground v.1.15,2013-01-24 14:35:00,
2013-01-24 06:40:00,40.6,38.5,30.11,West,267,0.0,0.0,92,0.00,,,0.00,Wunderground v.1.15,2013-01-24 14:40:00,
2013-01-24 06:50:00,40.1,38.0,30.11,West,267,0.0,0.0,92,0.00,,,0.00,Wunderground v.1.15,2013-01-24 14:50:00,
2013-01-24 06:55:00,39.8,37.7,30.11,West,267,0.0,0.0,92,0.00,,,0.00,Wunderground v.1.15,2013-01-24 14:55:00,
2013-01-24 07:05:00,39.2,37.1,30.11,West,267,0.0,7.0,92,0.00,,,0.00,Wunderground v.1.15,2013-01-24 15:05:00,
2013-01-24 07:10:00,38.9,36.8,30.10,West,267,0.0,7.0,92,0.00,,,0.00,Wunderground v.1.15,2013-01-24 15:10:00,
2013-01-24 07:20:00,38.8,36.7,30.10,West,267,0.0,0.0,92,0.00,,,0.00,Wunderground v.1.15,2013-01-24 15:20:00,
2013-01-24 07:25:00,38.9,37.0,30.10,West,267,0.0,0.0,93,0.00,,,0.00,Wunderground v.1.15,2013-01-24 15:25:00,
2013-01-24 07:30:00,39.1,37.2,30.10,West,267,0.0,0.0,93,0.00,,,0.00,Wunderground v.1.15,2013-01-24 15:30:00,
2013-01-24 07:35:00,39.2,37.3,30.10,West,267,0.0,0.0,93,0.00,,,0.00,Wunderground v.1.15,2013-01-24 15:35:00,
2013-01-24 07:40:00,39.2,37.3,30.10,West,267,0.0,0.0,93,0.00,,,0.00,Wunderground v.1.15,2013-01-24 15:40:00,
2013-01-24 07:45:00,39.3,37.4,30.10,West,267,0.0,0.0,93,0.00,,,0.00,Wunderground v.1.15,2013-01-24 15:45:00,
2013-01-24 07:50:00,39.3,37.4,30.10,West,267,0.0,0.0,93,0.00,,,0.00,Wunderground v.1.15,2013-01-24 15:50:00,
2013-01-24 08:00:00,39.3,37.4,30.10,West,267,0.0,0.0,93,0.00,,,0.00,Wunderground v.1.15,2013-01-24 16:00:00,
2013-01-24 08:10:00,38.8,36.9,30.10,West,267,0.0,1.0,93,0.00,,,0.00,Wunderground v.1.15,2013-01-24 16:10:00,
2013-01-24 08:15:00,38.5,36.7,30.10,West,267,0.0,1.0,93,0.00,,,0.00,Wunderground v.1.15,2013-01-24 16:15:00,
2013-01-24 08:25:00,38.2,36.4,30.09,West,267,0.0,0.0,93,0.00,,,0.00,Wunderground v.1.15,2013-01-24 16:25:00,
2013-01-24 08:30:00,38.2,36.4,30.09,West,267,0.0,0.0,93,0.00,,,0.00,Wunderground v.1.15,2013-01-24 16:30:00,
2013-01-24 08:35:00,38.0,36.2,30.09,West,267,0.0,0.0,93,0.00,,,0.00,Wunderground v.1.15,2013-01-24 16:35:00,
2013-01-24 08:40:00,38.2,36.4,30.08,West,267,0.0,0.0,93,0.00,,,0.00,Wunderground v.1.15,2013-01-24 16:40:00,
2013-01-24 08:45:00,38.5,36.9,30.08,West,267,0.0,0.0,94,0.00,,,0.00,Wunderground v.1.15,2013-01-24 16:45:00,
2013-01-24 08:50:00,38.9,37.3,30.08,West,267,0.0,0.0,94,0.00,,,0.00,Wunderground v.1.15,2013-01-24 16:50:00,
2013-01-24 09:00:00,39.5,37.9,30.08,West,267,0.0,0.0,94,0.00,,,0.00,Wunderground v.1.15,2013-01-24 17:00:00,
2013-01-24 09:05:00,39.5,37.6,30.08,West,267,0.0,2.0,93,0.00,,,0.00,Wunderground v.1.15,2013-01-24 17:05:00,
2013-01-24 09:10:00,39.3,37.4,30.09,West,267,0.0,2.0,93,0.00,,,0.00,Wunderground v.1.15,2013-01-24 17:10:00,
2013-01-24 09:15:00,39.3,37.4,30.09,West,267,0.0,2.0,93,0.00,,,0.00,Wunderground v.1.15,2013-01-24 17:15:00,
2013-01-24 09:25:00,39.5,37.9,30.09,West,267,0.0,0.0,94,0.00,,,0.00,Wunderground v.1.15,2013-01-24 17:25:00,
2013-01-24 09:30:00,39.6,38.0,30.09,West,267,0.0,0.0,94,0.00,,,0.00,Wunderground v.1.15,2013-01-24 17:30:00,
2013-01-24 09:35:00,39.9,38.3,30.09,West,267,0.0,0.0,94,0.00,,,0.00,Wunderground v.1.15,2013-01-24 17:35:00,
2013-01-24 09:40:00,40.1,38.2,30.09,West,267,0.0,0.0,93,0.00,,,0.00,Wunderground v.1.15,2013-01-24 17:40:00,
2013-01-24 09:45:00,40.2,38.3,30.09,West,267,0.0,0.0,93,0.00,,,0.00,Wunderground v.1.15,2013-01-24 17:45:00,
2013-01-24 09:50:00,40.3,38.4,30.09,West,267,0.0,0.0,93,0.00,,,0.00,Wunderground v.1.15,2013-01-24 17:50:00,
2013-01-24 09:55:00,40.5,38.6,30.09,West,267,0.0,0.0,93,0.00,,,0.00,Wunderground v.1.15,2013-01-24 17:55:00,
2013-01-24 10:05:00,40.9,38.8,30.09,South,175,0.0,1.0,92,0.00,,,0.00,Wunderground v.1.15,2013-01-24 18:05:00,
2013-01-24 10:10:00,41.2,38.8,30.08,ENE,76,0.0,1.0,91,0.00,,,0.00,Wunderground v.1.15,2013-01-24 18:10:00,
2013-01-24 10:20:00,41.6,39.2,30.08,East,79,0.0,1.0,91,0.00,,,0.00,Wunderground v.1.15,2013-01-24 18:20:00,
2013-01-24 10:30:00,42.2,39.5,30.08,East,88,0.0,0.0,90,0.00,,,0.00,Wunderground v.1.15,2013-01-24 18:30:00,
2013-01-24 10:35:00,42.1,38.8,30.08,WNW,282,1.0,1.0,88,0.00,,,0.00,Wunderground v.1.15,2013-01-24 18:35:00,
2013-01-24 10:40:00,42.2,38.6,30.09,SW,236,1.0,2.0,87,0.00,,,0.00,Wunderground v.1.15,2013-01-24 18:40:00,
2013-01-24 10:45:00,42.3,38.7,30.09,South,191,1.0,2.0,87,0.00,,,0.00,Wunderground v.1.15,2013-01-24 18:45:00,
2013-01-24 10:50:00,42.5,38.6,30.09,WNW,289,1.0,1.0,86,0.00,,,0.00,Wunderground v.1.15,2013-01-24 18:50:00,
2013-01-24 10:55:00,42.8,38.6,30.09,WNW,289,1.0,2.0,85,0.00,,,0.00,Wunderground v.1.15,2013-01-24 18:55:00,
2013-01-24 11:00:00,42.8,38.3,30.09,NNW,343,0.0,0.0,84,0.00,,,0.00,Wunderground v.1.15,2013-01-24 19:00:00,
2013-01-24 11:05:00,43.1,38.6,30.09,NW,319,0.0,3.0,84,0.00,,,0.00,Wunderground v.1.15,2013-01-24 19:05:00,
2013-01-24 11:15:00,43.3,38.5,30.08,West,271,0.0,3.0,83,0.00,,,0.00,Wunderground v.1.15,2013-01-24 19:15:00,
2013-01-24 11:20:00,43.5,38.4,30.08,West,275,0.0,0.0,82,0.00,,,0.00,Wunderground v.1.15,2013-01-24 19:20:00,
2013-01-24 11:30:00,43.8,38.7,30.08,East,80,0.0,0.0,82,0.00,,,0.00,Wunderground v.1.15,2013-01-24 19:30:00,
2013-01-24 11:40:00,44.1,39.0,30.07,East,80,0.0,0.0,82,0.00,,,0.00,Wunderground v.1.15,2013-01-24 19:40:00,
2013-01-24 11:45:00,43.9,38.4,30.07,NW,308,0.0,0.0,81,0.00,,,0.00,Wunderground v.1.15,2013-01-24 19:45:00,
2013-01-24 11:50:00,43.9,38.4,30.07,NW,306,0.0,0.0,81,0.00,,,0.00,Wunderground v.1.15,2013-01-24 19:50:00,
2013-01-24 11:55:00,43.9,38.1,30.07,NW,312,0.0,0.0,80,0.00,,,0.00,Wunderground v.1.15,2013-01-24 19:55:00,
2013-01-24 12:00:00,43.9,38.1,30.07,West,261,0.0,0.0,80,0.00,,,0.00,Wunderground v.1.15,2013-01-24 20:00:00,
2013-01-24 12:05:00,43.9,38.1,30.07,NNW,339,0.0,2.0,80,0.00,,,0.00,Wunderground v.1.15,2013-01-24 20:05:00,
2013-01-24 12:10:00,44.1,38.3,30.06,East,79,0.0,2.0,80,0.00,,,0.00,Wunderground v.1.15,2013-01-24 20:10:00,
2013-01-24 12:20:00,44.1,37.7,30.06,NE,51,1.0,1.0,78,0.00,,,0.00,Wunderground v.1.15,2013-01-24 20:20:00,
2013-01-24 12:25:00,44.2,37.8,30.03,NE,51,0.0,1.0,78,0.00,,,0.00,Wunderground v.1.15,2013-01-24 20:25:00,
2013-01-24 12:30:00,44.5,38.1,30.03,NE,51,0.0,2.0,78,0.00,,,0.00,Wunderground v.1.15,2013-01-24 20:30:00,
2013-01-24 12:40:00,44.9,38.1,30.03,WSW,250,0.0,0.0,77,0.00,,,0.00,Wunderground v.1.15,2013-01-24 20:40:00,
2013-01-24 12:50:00,44.9,36.4,30.03,WSW,244,1.0,1.0,72,0.00,,,0.00,Wunderground v.1.15,2013-01-24 20:50:00,
2013-01-24 12:55:00,44.9,36.1,30.03,West,264,1.0,1.0,71,0.00,,,0.00,Wunderground v.1.15,2013-01-24 20:55:00,
2013-01-24 13:00:00,44.9,36.1,30.03,NNE,14,1.0,1.0,71,0.00,,,0.00,Wunderground v.1.15,2013-01-24 21:00:00,
2013-01-24 13:05:00,45.1,36.6,30.03,NNE,14,1.0,4.0,72,0.00,,,0.00,Wunderground v.1.15,2013-01-24 21:05:00,
2013-01-24 13:10:00,45.1,36.6,30.02,NNE,14,0.0,4.0,72,0.00,,,0.00,Wunderground v.1.15,2013-01-24 21:10:00,
2013-01-24 13:20:00,44.9,36.1,30.02,WSW,258,1.0,1.0,71,0.00,,,0.00,Wunderground v.1.15,2013-01-24 21:20:00,
2013-01-24 13:25:00,44.9,35.7,30.02,West,271,1.0,1.0,70,0.00,,,0.00,Wunderground v.1.15,2013-01-24 21:25:00,
2013-01-24 13:30:00,44.9,35.7,30.02,WSW,253,1.0,1.0,70,0.00,,,0.00,Wunderground v.1.15,2013-01-24 21:30:00,
2013-01-24 13:35:00,44.9,36.1,30.02,WSW,253,0.0,1.0,71,0.00,,,0.00,Wunderground v.1.15,2013-01-24 21:35:00,
2013-01-24 13:45:00,44.8,36.3,30.01,East,93,0.0,1.0,72,0.00,,,0.00,Wunderground v.1.15,2013-01-24 21:45:00,
2013-01-24 13:50:00,44.6,36.1,30.01,East,93,0.0,0.0,72,0.00,,,0.00,Wunderground v.1.15,2013-01-24 21:50:00,
2013-01-24 13:55:00,44.6,36.1,30.00,West,275,1.0,1.0,72,0.00,,,0.00,Wunderground v.1.15,2013-01-24 21:55:00,
2013-01-24 14:00:00,44.5,35.7,30.00,WNW,284,1.0,2.0,71,0.00,,,0.00,Wunderground v.1.15,2013-01-24 22:00:00,
2013-01-24 14:05:00,44.5,35.7,30.00,West,264,1.0,7.0,71,0.00,,,0.00,Wunderground v.1.15,2013-01-24 22:05:00,
2013-01-24 14:10:00,44.5,35.7,30.00,NW,325,0.0,7.0,71,0.00,,,0.00,Wunderground v.1.15,2013-01-24 22:10:00,
2013-01-24 14:20:00,44.3,35.5,30.00,ENE,65,0.0,0.0,71,0.00,,,0.00,Wunderground v.1.15,2013-01-24 22:20:00,
2013-01-24 14:25:00,44.3,35.5,29.99,NW,322,1.0,1.0,71,0.00,,,0.00,Wunderground v.1.15,2013-01-24 22:25:00,
2013-01-24 14:30:00,44.2,35.4,29.99,NW,325,0.0,1.0,71,0.00,,,0.00,Wunderground v.1.15,2013-01-24 22:30:00,
2013-01-24 14:35:00,44.2,35.4,29.99,WNW,292,0.0,1.0,71,0.00,,,0.00,Wunderground v.1.15,2013-01-24 22:35:00,
2013-01-24 14:45:00,44.2,35.7,30.00,SW,224,0.0,0.0,72,0.00,,,0.00,Wunderground v.1.15,2013-01-24 22:45:00,
2013-01-24 14:50:00,44.1,35.6,30.00,SW,217,0.0,0.0,72,0.00,,,0.00,Wunderground v.1.15,2013-01-24 22:50:00,
2013-01-24 14:55:00,44.1,35.6,30.00,East,79,0.0,1.0,72,0.00,,,0.00,Wunderground v.1.15,2013-01-24 22:55:00,
2013-01-24 15:00:00,43.9,35.1,30.00,WNW,291,1.0,3.0,71,0.00,,,0.00,Wunderground v.1.15,2013-01-24 23:00:00,
2013-01-24 15:05:00,43.9,35.1,30.00,NE,56,1.0,5.0,71,0.00,,,0.00,Wunderground v.1.15,2013-01-24 23:05:00,
2013-01-24 15:10:00,43.9,35.1,30.00,West,265,1.0,1.0,71,0.00,,,0.00,Wunderground v.1.15,2013-01-24 23:10:00,
2013-01-24 15:20:00,44.1,35.6,30.00,WSW,254,0.0,0.0,72,0.00,,,0.00,Wunderground v.1.15,2013-01-24 23:20:00,
2013-01-24 15:25:00,44.1,36.0,30.00,ESE,110,0.0,1.0,73,0.00,,,0.00,Wunderground v.1.15,2013-01-24 23:25:00,
2013-01-24 15:35:00,43.9,36.1,30.00,West,280,1.0,1.0,74,0.00,,,0.00,Wunderground v.1.15,2013-01-24 23:35:00,
2013-01-24 15:40:00,43.9,36.5,29.99,NE,45,0.0,0.0,75,0.00,,,0.00,Wunderground v.1.15,2013-01-24 23:40:00,
2013-01-24 15:45:00,43.8,36.7,29.99,East,85,0.0,0.0,76,0.00,,,0.00,Wunderground v.1.15,2013-01-24 23:45:00,
2013-01-24 15:50:00,43.8,36.7,29.99,East,85,0.0,1.0,76,0.00,,,0.00,Wunderground v.1.15,2013-01-24 23:50:00,
2013-01-24 15:55:00,43.6,36.9,29.98,ENE,73,1.0,1.0,77,0.00,,,0.00,Wunderground v.1.15,2013-01-24 23:55:00,
2013-01-24 16:00:00,43.5,36.8,29.98,ENE,76,1.0,1.0,77,0.00,,,0.00,Wunderground v.1.15,2013-01-25 00:00:00,
2013-01-24 16:05:00,43.5,36.8,29.98,ENE,76,0.0,6.0,77,0.00,,,0.00,Wunderground v.1.15,2013-01-25 00:05:00,
2013-01-24 16:15:00,43.3,36.6,29.97,ENE,76,0.0,6.0,77,0.00,,,0.00,Wunderground v.1.15,2013-01-25 00:15:00,
2013-01-24 16:20:00,43.3,36.2,29.97,NNE,24,0.0,0.0,76,0.00,,,0.00,Wunderground v.1.15,2013-01-25 00:20:00,
2013-01-24 16:25:00,43.3,36.2,29.98,NNE,24,0.0,1.0,76,0.00,,,0.00,Wunderground v.1.15,2013-01-25 00:25:00,
2013-01-24 16:30:00,43.3,36.2,29.98,NNE,24,0.0,0.0,76,0.00,,,0.00,Wunderground v.1.15,2013-01-25 00:30:00,
2013-01-24 16:35:00,43.3,36.2,29.98,NNE,24,0.0,1.0,76,0.00,,,0.00,Wunderground v.1.15,2013-01-25 00:35:00,
2013-01-24 16:40:00,43.3,36.2,29.98,NNE,24,0.0,0.0,76,0.00,,,0.00,Wunderground v.1.15,2013-01-25 00:40:00,
2013-01-24 16:50:00,43.3,36.6,29.98,NE,47,0.0,0.0,77,0.00,,,0.00,Wunderground v.1.15,2013-01-25 00:50:00,
2013-01-24 16:55:00,43.3,36.6,29.98,NE,47,0.0,0.0,77,0.00,,,0.00,Wunderground v.1.15,2013-01-25 00:55:00,
2013-01-24 17:00:00,43.3,36.6,29.98,NE,47,0.0,0.0,77,0.00,,,0.00,Wunderground v.1.15,2013-01-25 01:00:00,
2013-01-24 17:05:00,43.3,36.6,29.98,NE,47,0.0,3.0,77,0.00,,,0.00,Wunderground v.1.15,2013-01-25 01:05:00,
2013-01-24 17:15:00,43.5,36.8,29.98,WNW,289,0.0,3.0,77,0.00,,,0.00,Wunderground v.1.15,2013-01-25 01:15:00,
2013-01-24 17:20:00,43.5,37.1,29.98,WNW,294,0.0,0.0,78,0.00,,,0.00,Wunderground v.1.15,2013-01-25 01:20:00,
2013-01-24 17:25:00,43.3,36.9,29.97,North,4,0.0,0.0,78,0.00,,,0.00,Wunderground v.1.15,2013-01-25 01:25:00,
2013-01-24 17:30:00,43.3,37.5,29.97,NE,55,0.0,1.0,80,0.00,,,0.01,Wunderground v.1.15,2013-01-25 01:30:00,
2013-01-24 17:40:00,42.9,38.1,29.98,ESE,114,0.0,0.0,83,0.08,,,0.02,Wunderground v.1.15,2013-01-25 01:40:00,
2013-01-24 17:45:00,42.6,37.8,29.98,SSE,152,1.0,2.0,83,0.08,,,0.03,Wunderground v.1.15,2013-01-25 01:45:00,
2013-01-24 17:50:00,42.3,37.8,29.98,West,271,1.0,3.0,84,0.08,,,0.03,Wunderground v.1.15,2013-01-25 01:50:00,
2013-01-24 17:55:00,42.1,37.9,29.97,East,80,1.0,3.0,85,0.05,,,0.03,Wunderground v.1.15,2013-01-25 01:55:00,
2013-01-24 18:00:00,41.8,37.9,29.97,ENE,66,1.0,1.0,86,0.04,,,0.04,Wunderground v.1.15,2013-01-25 02:00:00,
2013-01-24 18:05:00,41.6,37.7,29.97,SSW,206,1.0,2.0,86,0.04,,,0.04,Wunderground v.1.15,2013-01-25 02:05:00,
2013-01-24 18:15:00,41.6,38.0,29.96,NE,42,1.0,2.0,87,0.04,,,0.04,Wunderground v.1.15,2013-01-25 02:15:00,
2013-01-24 18:20:00,41.6,38.0,29.96,North,0,1.0,1.0,87,0.00,,,0.04,Wunderground v.1.15,2013-01-25 02:20:00,
2013-01-24 18:25:00,41.8,38.2,29.96,ENE,68,1.0,1.0,87,0.00,,,0.04,Wunderground v.1.15,2013-01-25 02:25:00,
2013-01-24 18:30:00,41.8,38.2,29.96,WNW,282,1.0,1.0,87,0.00,,,0.04,Wunderground v.1.15,2013-01-25 02:30:00,
2013-01-24 18:35:00,41.8,38.2,29.96,WNW,301,1.0,1.0,87,0.00,,,0.04,Wunderground v.1.15,2013-01-25 02:35:00,
2013-01-24 18:45:00,41.8,38.5,29.96,ENE,73,1.0,3.0,88,0.00,,,0.04,Wunderground v.1.15,2013-01-25 02:45:00,
2013-01-24 18:50:00,41.8,38.5,29.96,NNE,25,1.0,1.0,88,0.00,,,0.04,Wunderground v.1.15,2013-01-25 02:50:00,
2013-01-24 18:55:00,41.8,38.5,29.96,NW,313,1.0,2.0,88,0.00,,,0.04,Wunderground v.1.15,2013-01-25 02:55:00,
2013-01-24 19:00:00,41.8,38.8,29.96,WNW,285,1.0,1.0,89,0.00,,,0.04,Wunderground v.1.15,2013-01-25 03:00:00,
2013-01-24 19:05:00,41.8,38.8,29.96,NNE,31,1.0,6.0,89,0.00,,,0.04,Wunderground v.1.15,2013-01-25 03:05:00,
2013-01-24 19:10:00,41.8,38.8,29.96,North,7,2.0,2.0,89,0.00,,,0.04,Wunderground v.1.15,2013-01-25 03:10:00,
2013-01-24 19:20:00,41.6,38.6,29.96,WNW,288,2.0,2.0,89,0.00,,,0.05,Wunderground v.1.15,2013-01-25 03:20:00,
2013-01-24 19:25:00,41.6,38.6,29.95,WNW,288,2.0,2.0,89,0.00,,,0.05,Wunderground v.1.15,2013-01-25 03:25:00,
2013-01-24 19:30:00,41.5,38.5,29.95,West,275,2.0,2.0,89,0.00,,,0.05,Wunderground v.1.15,2013-01-25 03:30:00,
2013-01-24 19:40:00,41.3,38.6,29.95,SE,133,1.0,3.0,90,0.00,,,0.05,Wunderground v.1.15,2013-01-25 03:40:00,
2013-01-24 19:45:00,41.3,38.6,29.95,WNW,291,2.0,3.0,90,0.00,,,0.05,Wunderground v.1.15,2013-01-25 03:45:00,
2013-01-24 19:50:00,41.2,38.5,29.95,West,272,2.0,2.0,90,0.00,,,0.05,Wunderground v.1.15,2013-01-25 03:50:00,
2013-01-24 19:55:00,41.1,38.4,29.95,WNW,282,2.0,5.0,90,0.00,,,0.05,Wunderground v.1.15,2013-01-25 03:55:00,
2013-01-24 20:00:00,41.1,38.4,29.95,West,271,2.0,2.0,90,0.00,,,0.05,Wunderground v.1.15,2013-01-25 04:00:00,
2013-01-24 20:05:00,40.9,38.2,29.95,West,278,2.0,10.0,90,0.00,,,0.05,Wunderground v.1.15,2013-01-25 04:05:00,
2013-01-24 20:10:00,40.9,38.2,29.95,West,270,2.0,10.0,90,0.00,,,0.05,Wunderground v.1.15,2013-01-25 04:10:00,
2013-01-24 20:20:00,40.9,38.2,29.95,South,184,1.0,1.0,90,0.00,,,0.05,Wunderground v.1.15,2013-01-25 04:20:00,
2013-01-24 20:25:00,40.9,37.9,29.95,West,271,1.0,1.0,89,0.00,,,0.05,Wunderground v.1.15,2013-01-25 04:25:00,
2013-01-24 20:30:00,41.1,38.1,29.95,ENE,64,1.0,1.0,89,0.00,,,0.05,Wunderground v.1.15,2013-01-25 04:30:00,
2013-01-24 20:35:00,41.1,38.1,29.95,ENE,73,1.0,1.0,89,0.00,,,0.05,Wunderground v.1.15,2013-01-25 04:35:00,
2013-01-24 20:45:00,41.1,38.1,29.94,West,267,1.0,2.0,89,0.00,,,0.05,Wunderground v.1.15,2013-01-25 04:45:00,
2013-01-24 20:50:00,41.2,38.2,29.94,NW,308,1.0,1.0,89,0.00,,,0.05,Wunderground v.1.15,2013-01-25 04:50:00,
2013-01-24 20:55:00,41.2,38.2,29.95,ENE,69,1.0,1.0,89,0.00,,,0.05,Wunderground v.1.15,2013-01-25 04:55:00,
2013-01-24 21:00:00,41.3,38.3,29.95,ENE,66,1.0,1.0,89,0.00,,,0.05,Wunderground v.1.15,2013-01-25 05:00:00,
2013-01-24 21:10:00,41.5,38.5,29.94,ENE,73,0.0,7.0,89,0.00,,,0.05,Wunderground v.1.15,2013-01-25 05:10:00,
2013-01-24 21:15:00,41.6,38.6,29.94,NNE,17,0.0,7.0,89,0.00,,,0.05,Wunderground v.1.15,2013-01-25 05:15:00,
2013-01-24 21:20:00,41.8,38.8,29.94,West,280,1.0,1.0,89,0.00,,,0.05,Wunderground v.1.15,2013-01-25 05:20:00,
2013-01-24 21:30:00,42.1,39.1,29.94,NW,326,1.0,1.0,89,0.00,,,0.05,Wunderground v.1.15,2013-01-25 05:30:00,
2013-01-24 21:35:00,42.2,39.2,29.94,SW,223,1.0,1.0,89,0.00,,,0.05,Wunderground v.1.15,2013-01-25 05:35:00,
2013-01-24 21:40:00,42.2,38.9,29.93,West,271,1.0,3.0,88,0.00,,,0.05,Wunderground v.1.15,2013-01-25 05:40:00,
2013-01-24 21:45:00,42.3,39.0,29.93,SW,232,1.0,3.0,88,0.00,,,0.05,Wunderground v.1.15,2013-01-25 05:45:00,
2013-01-24 21:50:00,42.5,39.2,29.93,SSE,161,1.0,1.0,88,0.00,,,0.05,Wunderground v.1.15,2013-01-25 05:50:00,
2013-01-24 21:55:00,42.5,39.2,29.93,SW,229,1.0,1.0,88,0.00,,,0.05,Wunderground v.1.15,2013-01-25 05:55:00,
2013-01-24 22:00:00,42.6,39.3,29.93,East,79,1.0,1.0,88,0.00,,,0.05,Wunderground v.1.15,2013-01-25 06:00:00,
2013-01-24 22:10:00,42.8,39.5,29.92,West,270,1.0,1.0,88,0.00,,,0.05,Wunderground v.1.15,2013-01-25 06:10:00,
2013-01-24 22:15:00,43.1,39.5,29.92,NW,312,1.0,1.0,87,0.00,,,0.05,Wunderground v.1.15,2013-01-25 06:15:00,
2013-01-24 22:25:00,43.3,39.4,29.92,West,281,1.0,3.0,86,0.00,,,0.05,Wunderground v.1.15,2013-01-25 06:25:00,
2013-01-24 22:30:00,43.5,39.6,29.92,NW,312,1.0,6.0,86,0.00,,,0.05,Wunderground v.1.15,2013-01-25 06:30:00,
2013-01-24 22:35:00,43.5,39.6,29.92,North,7,1.0,6.0,86,0.00,,,0.05,Wunderground v.1.15,2013-01-25 06:35:00,
2013-01-24 22:40:00,43.6,39.7,29.92,West,275,1.0,2.0,86,0.00,,,0.05,Wunderground v.1.15,2013-01-25 06:40:00,
2013-01-24 22:45:00,43.8,39.9,29.92,NE,52,1.0,2.0,86,0.00,,,0.05,Wunderground v.1.15,2013-01-25 06:45:00,
2013-01-24 22:50:00,43.9,39.7,29.92,WNW,284,1.0,2.0,85,0.00,,,0.05,Wunderground v.1.15,2013-01-25 06:50:00,
2013-01-24 22:55:00,44.1,39.9,29.92,SW,215,1.0,2.0,85,0.00,,,0.05,Wunderground v.1.15,2013-01-25 06:55:00,
2013-01-24 23:05:00,44.3,39.8,29.92,East,88,1.0,5.0,84,0.00,,,0.05,Wunderground v.1.15,2013-01-25 07:05:00,
2013-01-24 23:10:00,44.5,40.0,29.92,ENE,59,1.0,5.0,84,0.00,,,0.05,Wunderground v.1.15,2013-01-25 07:10:00,
2013-01-24 23:20:00,44.6,40.1,29.92,SW,230,1.0,2.0,84,0.00,,,0.05,Wunderground v.1.15,2013-01-25 07:20:00,
2013-01-24 23:25:00,44.8,40.3,29.93,WSW,254,1.0,2.0,84,0.00,,,0.05,Wunderground v.1.15,2013-01-25 07:25:00,
2013-01-24 23:30:00,44.8,40.3,29.93,ENE,75,2.0,2.0,84,0.00,,,0.05,Wunderground v.1.15,2013-01-25 07:30:00,
2013-01-24 23:35:00,44.9,40.4,29.93,WNW,299,1.0,2.0,84,0.00,,,0.05,Wunderground v.1.15,2013-01-25 07:35:00,
2013-01-24 23:40:00,44.9,40.4,29.92,West,271,1.0,1.0,84,0.00,,,0.05,Wunderground v.1.15,2013-01-25 07:40:00,
2013-01-24 23:45:00,44.9,40.4,29.92,East,96,1.0,1.0,84,0.00,,,0.05,Wunderground v.1.15,2013-01-25 07:45:00,
2013-01-24 23:50:00,44.9,40.4,29.92,NNW,344,1.0,1.0,84,0.00,,,0.05,Wunderground v.1.15,2013-01-25 07:50:00,